Time;durP1;ratioP1;P1;durP2;ratioP2;P2;SDS_P1;SDS_P2;PMS_P1;PMS_P2;Temp;Humidity;BMP_temperature;BMP_pressure;BME280_temperature;BME280_humidity;BME280_pressure;Samples;Min_cycle;Max_cycle;Signal;HPM_P1;HPM_P2
2022/04/19 00:00:34;;;;;;;;;;;7.20;68.70;;;;;;5052670;28;19909;-88
2022/04/19 00:03:00;;;;;;;;;;;7.00;68.20;;;;;;5052831;28;19909;-88
2022/04/19 00:05:26;;;;;;;;;;;6.80;69.00;;;;;;5052754;28;20279;-88
2022/04/19 00:07:51;;;;;;;;;;;6.70;68.90;;;;;;5052588;28;19921;-88
2022/04/19 00:10:17;;;;;;;;;;;6.90;68.30;;;;;;5052495;28;19913;-88
2022/04/19 00:12:43;;;;;;;;;;;7.00;67.90;;;;;;5052621;28;19913;-88
2022/04/19 00:15:09;;;;;;;;;;;7.20;68.30;;;;;;5052902;28;19928;-88
2022/04/19 00:17:35;;;;;;;;;;;7.30;68.30;;;;;;5052548;28;20063;-87
2022/04/19 00:20:00;;;;;;;;;;;7.30;68.20;;;;;;5052540;28;19909;-88
2022/04/19 00:22:28;;;;;;;;;;;7.30;67.90;;;;;;5052558;28;19909;-88
2022/04/19 00:24:54;;;;;;;;;;;7.30;67.10;;;;;;5052532;28;19913;-88
2022/04/19 00:27:19;;;;;;;;;;;7.40;65.70;;;;;;5052510;28;19909;-88
2022/04/19 00:29:47;;;;;;;;;;;7.40;66.10;;;;;;5052399;28;19920;-87
2022/04/19 00:32:12;;;;;;;;;;;6.90;67.60;;;;;;5052323;28;20528;-88
2022/04/19 00:34:38;;;;;;;;;;;6.90;68.00;;;;;;5052439;28;19909;-88
2022/04/19 00:37:05;;;;;;;;;;;7.00;68.10;;;;;;5052426;28;19919;-87
2022/04/19 00:39:30;;;;;;;;;;;7.10;68.50;;;;;;5052388;28;19909;-88
2022/04/19 00:41:56;;;;;;;;;;;6.90;68.80;;;;;;5052352;28;19909;-88
2022/04/19 00:44:23;;;;;;;;;;;6.60;69.20;;;;;;5052643;28;20420;-88
2022/04/19 00:46:49;;;;;;;;;;;6.40;70.20;;;;;;5055425;28;19952;-88
2022/04/19 00:49:17;;;;;;;;;;;6.60;70.90;;;;;;5055920;28;19915;-88
2022/04/19 00:51:43;;;;;;;;;;;6.70;70.50;;;;;;5055772;28;19917;-88
2022/04/19 00:54:09;;;;;;;;;;;6.80;70.00;;;;;;5055831;28;19931;-88
2022/04/19 00:56:34;;;;;;;;;;;6.90;68.90;;;;;;5054581;28;20366;-87
2022/04/19 00:59:02;;;;;;;;;;;6.90;69.00;;;;;;5055710;28;19966;-88
2022/04/19 01:01:27;;;;;;;;;;;6.50;70.40;;;;;;5055635;28;20349;-88
2022/04/19 01:03:53;;;;;;;;;;;6.60;70.60;;;;;;5055676;28;19916;-88
2022/04/19 01:06:18;;;;;;;;;;;6.60;71.10;;;;;;5054200;28;19994;-87
2022/04/19 01:08:44;;;;;;;;;;;6.60;71.30;;;;;;5055241;28;19920;-88
2022/04/19 01:14:14;;;;;;;;;;;6.60;72.00;;;;;;5013490;28;20017;-88
2022/04/19 01:16:42;;;;;;;;;;;6.60;72.40;;;;;;5013443;28;20004;-88
2022/04/19 01:19:15;;;;;;;;;;;6.60;73.00;;;;;;5033437;28;20007;-88
2022/04/19 01:21:48;;;;;;;;;;;6.60;73.50;;;;;;5055234;28;19909;-88
2022/04/19 01:24:21;;;;;;;;;;;6.60;73.30;;;;;;5055251;28;19909;-88
2022/04/19 01:26:47;;;;;;;;;;;6.60;73.30;;;;;;5055129;28;20294;-88
2022/04/19 01:29:12;;;;;;;;;;;6.60;73.80;;;;;;5055185;28;20090;-88
2022/04/19 01:31:40;;;;;;;;;;;6.10;73.10;;;;;;5054916;28;19920;-87
2022/04/19 01:34:06;;;;;;;;;;;6.00;74.20;;;;;;5055357;28;19951;-88
2022/04/19 01:36:38;;;;;;;;;;;6.10;75.00;;;;;;5055022;28;19955;-88
2022/04/19 01:39:07;;;;;;;;;;;6.10;75.10;;;;;;5054982;28;19938;-88
2022/04/19 01:41:33;;;;;;;;;;;6.20;75.90;;;;;;5054988;28;20477;-88
2022/04/19 01:43:59;;;;;;;;;;;6.40;76.50;;;;;;5054851;28;19951;-88
2022/04/19 01:46:26;;;;;;;;;;;6.40;75.80;;;;;;5053527;28;19992;-88
2022/04/19 01:48:53;;;;;;;;;;;6.20;74.90;;;;;;5054790;28;19909;-88
2022/04/19 01:51:20;;;;;;;;;;;6.10;75.00;;;;;;5054678;28;19912;-88
2022/04/19 01:53:45;;;;;;;;;;;6.10;75.50;;;;;;5054671;28;20385;-88
2022/04/19 01:56:11;;;;;;;;;;;6.10;75.50;;;;;;5054252;28;19909;-88
2022/04/19 01:58:37;;;;;;;;;;;6.20;75.80;;;;;;5054621;28;20004;-88
2022/04/19 02:01:02;;;;;;;;;;;6.20;76.00;;;;;;5054582;28;19919;-88
2022/04/19 02:03:28;;;;;;;;;;;6.20;75.90;;;;;;5054520;28;19908;-88
2022/04/19 02:05:53;;;;;;;;;;;6.30;75.60;;;;;;5054457;28;19994;-88
2022/04/19 02:08:19;;;;;;;;;;;6.30;75.00;;;;;;5054279;28;20393;-88
2022/04/19 02:10:45;;;;;;;;;;;6.00;74.30;;;;;;5054215;28;20098;-88
2022/04/19 02:13:13;;;;;;;;;;;6.00;74.70;;;;;;5054334;28;20011;-88
2022/04/19 02:15:39;;;;;;;;;;;6.00;74.70;;;;;;5054214;28;19909;-88
2022/04/19 02:18:05;;;;;;;;;;;6.00;74.90;;;;;;5054181;28;19909;-87
2022/04/19 02:20:31;;;;;;;;;;;6.10;75.10;;;;;;5054140;28;19909;-88
2022/04/19 02:22:57;;;;;;;;;;;6.20;74.20;;;;;;5054132;28;20354;-88
2022/04/19 02:25:24;;;;;;;;;;;6.20;73.80;;;;;;5054381;28;20013;-88
2022/04/19 02:27:50;;;;;;;;;;;6.10;74.20;;;;;;5053994;28;19955;-88
2022/04/19 02:30:16;;;;;;;;;;;5.80;74.70;;;;;;5053888;28;19916;-88
2022/04/19 02:32:49;;;;;;;;;;;5.70;75.20;;;;;;5053870;28;19971;-87
2022/04/19 02:35:20;;;;;;;;;;;5.80;75.30;;;;;;5053891;28;19952;-88
2022/04/19 02:37:52;;;;;;;;;;;5.80;75.70;;;;;;5053805;28;19909;-88
2022/04/19 02:40:19;;;;;;;;;;;5.80;75.50;;;;;;5053827;28;19909;-88
2022/04/19 02:42:44;;;;;;;;;;;5.90;76.30;;;;;;5054098;28;19909;-87
2022/04/19 02:45:10;;;;;;;;;;;5.90;76.20;;;;;;5053707;28;19916;-87
2022/04/19 02:47:36;;;;;;;;;;;5.80;76.30;;;;;;5053280;28;19915;-88
2022/04/19 02:50:02;;;;;;;;;;;5.50;75.90;;;;;;5052879;28;19916;-88
2022/04/19 02:52:27;;;;;;;;;;;5.40;76.30;;;;;;5053166;28;19923;-88
2022/04/19 02:54:53;;;;;;;;;;;5.30;77.00;;;;;;5053300;28;19913;-88
2022/04/19 02:57:19;;;;;;;;;;;5.20;77.30;;;;;;5053442;28;20032;-88
2022/04/19 02:59:45;;;;;;;;;;;5.20;77.60;;;;;;5052948;28;19909;-88
2022/04/19 03:02:11;;;;;;;;;;;5.20;78.00;;;;;;5053432;28;20363;-88
2022/04/19 03:04:37;;;;;;;;;;;5.20;78.10;;;;;;5052853;28;19909;-88
2022/04/19 03:07:04;;;;;;;;;;;5.20;78.50;;;;;;5052944;28;19913;-88
2022/04/19 03:09:29;;;;;;;;;;;5.20;79.20;;;;;;5052169;28;19909;-88
2022/04/19 03:11:55;;;;;;;;;;;5.20;77.60;;;;;;5053257;28;19909;-87
2022/04/19 03:14:21;;;;;;;;;;;5.20;77.50;;;;;;5053169;28;19916;-88
2022/04/19 03:16:46;;;;;;;;;;;5.20;78.90;;;;;;5053166;28;19924;-88
2022/04/19 03:19:13;;;;;;;;;;;5.20;79.20;;;;;;5053425;28;19909;-88
2022/04/19 03:21:40;;;;;;;;;;;5.10;78.90;;;;;;5053120;28;19909;-88
2022/04/19 03:29:34;;;;;;;;;;;5.30;76.30;;;;;;5053010;28;19919;-88
2022/04/19 03:32:00;;;;;;;;;;;5.30;76.90;;;;;;5052945;28;19912;-88
2022/04/19 03:34:26;;;;;;;;;;;5.20;77.00;;;;;;5053055;28;19909;-88
2022/04/19 03:36:52;;;;;;;;;;;5.30;76.80;;;;;;5052944;28;19913;-87
2022/04/19 03:39:18;;;;;;;;;;;5.20;76.90;;;;;;5053226;28;19913;-88
2022/04/19 03:41:44;;;;;;;;;;;5.00;76.70;;;;;;5052928;28;20359;-88
2022/04/19 03:44:11;;;;;;;;;;;5.10;76.70;;;;;;5052890;28;20306;-88
2022/04/19 03:47:07;;;;;;;;;;;5.10;76.20;;;;;;5053247;28;19909;-87
2022/04/19 03:49:23;;;;;;;;;;;5.00;76.90;;;;;;5052757;28;19913;-88
2022/04/19 03:51:48;;;;;;;;;;;5.00;76.40;;;;;;5051481;28;19948;-87
2022/04/19 03:54:14;;;;;;;;;;;5.10;76.70;;;;;;5052736;28;19959;-88
2022/04/19 03:56:39;;;;;;;;;;;5.10;76.50;;;;;;5052825;28;19909;-88
2022/04/19 03:59:06;;;;;;;;;;;5.30;75.90;;;;;;5052737;28;19916;-88
2022/04/19 04:01:31;;;;;;;;;;;5.20;75.50;;;;;;5052775;28;19909;-88
2022/04/19 04:03:57;;;;;;;;;;;5.20;75.30;;;;;;5052654;28;19920;-87
2022/04/19 04:06:22;;;;;;;;;;;5.00;75.40;;;;;;5052713;28;19912;-88
2022/04/19 04:08:48;;;;;;;;;;;5.00;75.70;;;;;;5052424;28;20019;-88
2022/04/19 04:11:13;;;;;;;;;;;5.00;75.80;;;;;;5052600;28;20071;-88
2022/04/19 04:13:39;;;;;;;;;;;5.00;76.10;;;;;;5051386;28;19948;-88
2022/04/19 04:16:04;;;;;;;;;;;5.00;76.70;;;;;;5052616;28;19909;-87
2022/04/19 04:18:31;;;;;;;;;;;4.90;76.30;;;;;;5052632;28;19912;-88
2022/04/19 04:20:56;;;;;;;;;;;5.00;76.40;;;;;;5056265;28;19915;-87
2022/04/19 04:23:22;;;;;;;;;;;5.20;76.50;;;;;;5056379;28;19908;-87
2022/04/19 04:25:47;;;;;;;;;;;5.00;75.00;;;;;;5056370;28;19909;-88
2022/04/19 04:28:13;;;;;;;;;;;5.00;74.90;;;;;;5056343;28;19913;-87
2022/04/19 04:30:38;;;;;;;;;;;5.10;75.30;;;;;;5056145;28;20369;-88
2022/04/19 04:33:04;;;;;;;;;;;5.10;75.90;;;;;;5056177;28;20278;-88
2022/04/19 04:35:29;;;;;;;;;;;5.30;76.00;;;;;;5056232;28;19908;-87
2022/04/19 04:37:55;;;;;;;;;;;5.10;75.10;;;;;;5056160;28;19955;-88
2022/04/19 04:40:21;;;;;;;;;;;5.10;75.00;;;;;;5056101;28;20018;-88
2022/04/19 04:42:46;;;;;;;;;;;5.20;75.10;;;;;;5056014;28;19909;-88
2022/04/19 04:45:12;;;;;;;;;;;4.90;74.70;;;;;;5056030;28;19915;-87
2022/04/19 04:50:21;;;;;;;;;;;5.00;74.90;;;;;;5055868;28;19969;-88
2022/04/19 04:52:48;;;;;;;;;;;5.00;75.60;;;;;;5056136;28;19944;-87
2022/04/19 04:55:13;;;;;;;;;;;5.10;76.10;;;;;;5055811;28;19931;-88
2022/04/19 04:57:39;;;;;;;;;;;5.30;76.60;;;;;;5069022;28;19921;-87
2022/04/19 05:00:04;;;;;;;;;;;5.40;76.70;;;;;;5061398;28;19951;-88
2022/04/19 05:02:31;;;;;;;;;;;5.30;76.70;;;;;;5055326;28;19952;-87
2022/04/19 05:04:56;;;;;;;;;;;5.10;76.40;;;;;;5059035;28;19909;-88
2022/04/19 05:07:22;;;;;;;;;;;5.20;76.50;;;;;;5058764;28;20252;-88
2022/04/19 05:09:48;;;;;;;;;;;5.20;76.40;;;;;;5055206;28;20470;-88
2022/04/19 05:12:13;;;;;;;;;;;5.50;76.20;;;;;;5055523;28;19917;-88
2022/04/19 05:14:39;;;;;;;;;;;5.60;75.00;;;;;;5057041;28;20339;-88
2022/04/19 05:17:04;;;;;;;;;;;5.60;75.40;;;;;;5055385;28;20375;-88
2022/04/19 05:19:30;;;;;;;;;;;5.50;75.60;;;;;;5055390;28;19916;-87
2022/04/19 05:21:56;;;;;;;;;;;5.60;76.10;;;;;;5068617;28;19909;-88
2022/04/19 05:24:22;;;;;;;;;;;5.60;76.20;;;;;;5075562;28;19908;-88
2022/04/19 05:26:47;;;;;;;;;;;5.70;76.50;;;;;;5074986;28;19909;-88
2022/04/19 05:29:13;;;;;;;;;;;5.80;76.80;;;;;;5075145;28;19916;-88
2022/04/19 05:31:38;;;;;;;;;;;6.10;75.90;;;;;;5062852;28;19919;-88
2022/04/19 05:34:04;;;;;;;;;;;6.20;74.60;;;;;;5052732;28;19913;-88
2022/04/19 05:36:30;;;;;;;;;;;5.90;74.60;;;;;;5047265;28;20166;-88
2022/04/19 05:38:55;;;;;;;;;;;6.10;75.00;;;;;;5054678;28;19912;-88
2022/04/19 05:41:21;;;;;;;;;;;6.40;74.60;;;;;;5053503;28;20364;-88
2022/04/19 05:43:47;;;;;;;;;;;6.60;75.40;;;;;;5052741;28;19919;-88
2022/04/19 05:46:13;;;;;;;;;;;6.60;75.30;;;;;;5042411;28;19913;-88
2022/04/19 05:48:39;;;;;;;;;;;6.70;75.50;;;;;;5054803;28;19969;-88
2022/04/19 05:51:04;;;;;;;;;;;6.90;76.00;;;;;;5054474;28;19917;-88
2022/04/19 05:53:30;;;;;;;;;;;6.80;75.70;;;;;;5058409;28;19970;-88
2022/04/19 05:55:55;;;;;;;;;;;6.90;76.30;;;;;;5054546;28;20394;-88
2022/04/19 05:58:21;;;;;;;;;;;7.00;77.10;;;;;;5051166;28;20279;-88
2022/04/19 06:00:46;;;;;;;;;;;7.20;77.20;;;;;;5048546;28;20359;-88
2022/04/19 06:05:56;;;;;;;;;;;7.40;76.50;;;;;;5042338;28;19961;-88
2022/04/19 06:08:22;;;;;;;;;;;7.60;76.40;;;;;;5064179;28;20375;-88
2022/04/19 06:10:49;;;;;;;;;;;7.70;76.00;;;;;;5067420;28;20287;-88
2022/04/19 06:13:15;;;;;;;;;;;7.80;75.60;;;;;;5053099;28;20370;-88
2022/04/19 06:15:41;;;;;;;;;;;8.10;75.30;;;;;;5059808;28;20015;-89
2022/04/19 06:18:06;;;;;;;;;;;8.20;74.50;;;;;;5050944;28;19920;-87
2022/04/19 06:20:32;;;;;;;;;;;8.30;74.00;;;;;;5051896;28;19913;-88
2022/04/19 06:22:57;;;;;;;;;;;8.40;73.00;;;;;;5053268;28;19916;-88
2022/04/19 06:25:23;;;;;;;;;;;8.40;72.70;;;;;;5053944;28;20019;-88
2022/04/19 06:27:49;;;;;;;;;;;8.50;72.40;;;;;;5054939;28;20424;-88
2022/04/19 06:30:15;;;;;;;;;;;8.70;71.40;;;;;;5052246;28;19916;-88
2022/04/19 06:32:42;;;;;;;;;;;8.80;71.20;;;;;;5049504;28;19967;-88
2022/04/19 06:35:08;;;;;;;;;;;8.90;71.40;;;;;;5048051;28;19960;-88
2022/04/19 06:37:34;;;;;;;;;;;9.00;70.20;;;;;;5054186;28;19923;-88
2022/04/19 06:40:00;;;;;;;;;;;9.20;70.10;;;;;;5046751;28;19913;-88
2022/04/19 06:42:26;;;;;;;;;;;9.20;69.60;;;;;;5050987;28;19966;-88
2022/04/19 06:44:52;;;;;;;;;;;9.40;69.10;;;;;;5053245;28;19916;-88
2022/04/19 06:47:17;;;;;;;;;;;9.50;68.70;;;;;;5053499;28;20291;-88
2022/04/19 06:49:43;;;;;;;;;;;9.70;69.10;;;;;;5052340;28;20182;-88
2022/04/19 06:52:08;;;;;;;;;;;9.90;67.60;;;;;;5052219;28;20310;-88
2022/04/19 06:54:34;;;;;;;;;;;10.00;65.70;;;;;;5042491;28;20393;-88
2022/04/19 06:57:00;;;;;;;;;;;10.10;64.50;;;;;;5046653;28;20367;-88
2022/04/19 06:59:25;;;;;;;;;;;10.30;64.00;;;;;;5045765;28;19951;-88
2022/04/19 07:01:51;;;;;;;;;;;10.40;64.10;;;;;;5051575;28;19913;-88
2022/04/19 07:04:17;;;;;;;;;;;10.50;64.00;;;;;;5051554;28;20298;-88
2022/04/19 07:06:42;;;;;;;;;;;10.50;66.00;;;;;;5055638;28;19936;-88
2022/04/19 07:09:08;;;;;;;;;;;10.70;64.50;;;;;;5059081;23;20016;-88
2022/04/19 07:11:37;;;;;;;;;;;10.80;63.90;;;;;;5043019;28;20173;-88
2022/04/19 07:14:03;;;;;;;;;;;10.90;67.40;;;;;;5056344;28;19921;-88
2022/04/19 07:16:28;;;;;;;;;;;10.90;65.00;;;;;;5057524;28;19916;-88
2022/04/19 07:18:54;;;;;;;;;;;11.10;63.90;;;;;;5056081;28;19936;-88
2022/04/19 07:26:48;;;;;;;;;;;11.00;66.70;;;;;;5050603;28;19958;-88
2022/04/19 07:29:15;;;;;;;;;;;11.20;66.40;;;;;;5052207;28;20007;-88
2022/04/19 07:31:44;;;;;;;;;;;11.20;65.50;;;;;;5058366;28;20354;-88
2022/04/19 07:34:10;;;;;;;;;;;11.30;65.50;;;;;;5054882;28;19916;-88
2022/04/19 07:36:37;;;;;;;;;;;11.30;65.10;;;;;;5058798;28;19912;-88
2022/04/19 07:39:06;;;;;;;;;;;11.50;65.00;;;;;;5054553;28;20018;-88
2022/04/19 07:41:34;;;;;;;;;;;11.60;64.40;;;;;;5058222;28;19913;-88
2022/04/19 07:44:01;;;;;;;;;;;11.50;64.10;;;;;;5053442;28;19917;-88
2022/04/19 07:46:26;;;;;;;;;;;11.60;64.00;;;;;;5052158;28;19912;-88
2022/04/19 07:48:52;;;;;;;;;;;11.70;65.20;;;;;;5052986;28;19967;-89
2022/04/19 07:51:18;;;;;;;;;;;11.80;63.80;;;;;;5050946;28;19956;-88
2022/04/19 07:53:43;;;;;;;;;;;12.10;61.80;;;;;;5049464;28;20035;-88
2022/04/19 07:56:09;;;;;;;;;;;12.30;61.00;;;;;;5054863;28;19983;-88
2022/04/19 07:58:34;;;;;;;;;;;12.40;59.50;;;;;;5052440;28;19982;-88
2022/04/19 08:01:00;;;;;;;;;;;12.60;58.60;;;;;;5049663;28;20378;-88
2022/04/19 08:03:26;;;;;;;;;;;12.80;58.50;;;;;;5052352;28;19920;-88
2022/04/19 08:05:52;;;;;;;;;;;12.90;58.20;;;;;;5056601;28;20362;-88
2022/04/19 08:08:18;;;;;;;;;;;13.00;58.50;;;;;;5056075;28;19939;-88
2022/04/19 08:10:44;;;;;;;;;;;13.20;58.70;;;;;;5059374;28;19924;-88
2022/04/19 08:13:09;;;;;;;;;;;13.30;58.00;;;;;;5050804;28;19913;-88
2022/04/19 08:15:35;;;;;;;;;;;13.40;58.20;;;;;;5053319;28;19913;-88
2022/04/19 08:18:00;;;;;;;;;;;13.30;58.10;;;;;;5055017;28;20044;-88
2022/04/19 08:20:26;;;;;;;;;;;13.20;58.00;;;;;;5052267;28;19925;-88
2022/04/19 08:22:52;;;;;;;;;;;13.20;58.70;;;;;;5049059;28;19928;-88
2022/04/19 08:25:17;;;;;;;;;;;13.30;57.60;;;;;;5056410;28;19917;-88
2022/04/19 08:27:46;;;;;;;;;;;13.40;56.50;;;;;;5054971;28;20411;-88
2022/04/19 08:30:13;;;;;;;;;;;13.70;55.40;;;;;;5044286;28;20286;-88
2022/04/19 08:32:39;;;;;;;;;;;13.90;54.10;;;;;;5056226;28;20324;-88
2022/04/19 08:35:05;;;;;;;;;;;14.00;53.70;;;;;;5060725;28;19913;-88
2022/04/19 08:37:32;;;;;;;;;;;14.20;55.20;;;;;;5063519;28;20358;-88
2022/04/19 08:39:57;;;;;;;;;;;14.40;54.00;;;;;;5073117;28;19918;-88
2022/04/19 08:42:23;;;;;;;;;;;14.50;52.20;;;;;;5056062;28;19908;-88
2022/04/19 08:44:48;;;;;;;;;;;14.70;51.20;;;;;;5055589;28;20325;-88
2022/04/19 08:47:14;;;;;;;;;;;14.80;51.80;;;;;;5055761;28;19913;-89
2022/04/19 08:49:41;;;;;;;;;;;14.90;52.40;;;;;;5052616;28;20297;-88
2022/04/19 08:52:07;;;;;;;;;;;14.90;50.60;;;;;;5051850;28;19929;-88
2022/04/19 08:57:29;;;;;;;;;;;14.80;50.90;;;;;;5055397;28;20416;-88
2022/04/19 08:59:55;;;;;;;;;;;14.80;49.00;;;;;;5046452;28;19917;-88
2022/04/19 09:02:27;;;;;;;;;;;14.80;44.20;;;;;;5055900;28;19909;-88
2022/04/19 09:04:53;;;;;;;;;;;14.90;43.80;;;;;;5055486;28;19913;-89
2022/04/19 09:07:20;;;;;;;;;;;15.00;42.00;;;;;;5050212;28;20424;-88
2022/04/19 09:09:59;;;;;;;;;;;15.00;46.30;;;;;;5054538;28;19916;-88
2022/04/19 09:12:25;;;;;;;;;;;15.00;44.90;;;;;;5042522;28;20457;-89
2022/04/19 09:14:55;;;;;;;;;;;15.00;43.50;;;;;;5060607;28;19921;-88
2022/04/19 09:17:28;;;;;;;;;;;15.00;42.40;;;;;;5068037;28;20003;-88
2022/04/19 09:20:06;;;;;;;;;;;15.10;45.20;;;;;;5060984;28;19913;-89
2022/04/19 09:22:32;;;;;;;;;;;15.30;47.70;;;;;;5055440;28;19990;-89
2022/04/19 09:25:12;;;;;;;;;;;15.40;46.60;;;;;;5054838;28;20351;-88
2022/04/19 09:27:38;;;;;;;;;;;15.30;45.40;;;;;;5061871;28;19983;-89
2022/04/19 09:30:18;;;;;;;;;;;15.40;47.10;;;;;;5058553;28;21809;-89
2022/04/19 09:33:01;;;;;;;;;;;15.60;48.30;;;;;;5064895;28;20375;-88
2022/04/19 09:35:28;;;;;;;;;;;15.80;48.60;;;;;;5049892;28;19979;-88
2022/04/19 09:37:55;;;;;;;;;;;16.00;45.90;;;;;;5055703;28;19996;-89
2022/04/19 09:40:26;;;;;;;;;;;16.20;44.40;;;;;;5054800;28;19944;-88
2022/04/19 09:42:54;;;;;;;;;;;16.30;41.20;;;;;;5049609;28;19912;-88
2022/04/19 09:45:19;;;;;;;;;;;16.20;41.80;;;;;;5046019;28;20260;-88
2022/04/19 09:47:53;;;;;;;;;;;16.10;44.50;;;;;;5055977;28;20351;-88
2022/04/19 09:50:18;;;;;;;;;;;16.10;43.50;;;;;;5055714;28;20393;-88
2022/04/19 09:52:48;;;;;;;;;;;15.90;40.60;;;;;;5050375;28;19913;-88
2022/04/19 09:55:15;;;;;;;;;;;16.00;42.70;;;;;;5054826;28;19912;-88
2022/04/19 09:57:41;;;;;;;;;;;15.80;41.10;;;;;;5060479;28;19913;-88
2022/04/19 10:00:09;;;;;;;;;;;15.80;43.70;;;;;;5055600;28;19931;-88
2022/04/19 10:08:19;;;;;;;;;;;15.90;42.30;;;;;;5050190;28;20325;-88
2022/04/19 10:10:49;;;;;;;;;;;15.90;41.90;;;;;;5050932;28;19978;-88
2022/04/19 10:13:17;;;;;;;;;;;15.90;40.10;;;;;;5054436;28;19913;-88
2022/04/19 10:15:42;;;;;;;;;;;15.80;39.30;;;;;;5054086;28;19916;-88
2022/04/19 10:18:08;;;;;;;;;;;15.80;40.70;;;;;;5053977;28;19913;-88
2022/04/19 10:20:39;;;;;;;;;;;15.90;41.50;;;;;;5053768;28;19924;-88
2022/04/19 10:23:06;;;;;;;;;;;15.90;41.10;;;;;;5054793;28;19912;-89
2022/04/19 10:25:40;;;;;;;;;;;16.00;41.70;;;;;;5053827;28;19913;-88
2022/04/19 10:28:06;;;;;;;;;;;16.00;40.70;;;;;;5054100;28;19909;-88
2022/04/19 10:30:33;;;;;;;;;;;15.90;41.70;;;;;;5053644;28;19924;-88
2022/04/19 10:33:00;;;;;;;;;;;16.00;41.30;;;;;;5053888;28;19916;-88
2022/04/19 10:35:25;;;;;;;;;;;16.10;41.50;;;;;;5053670;28;19920;-88
2022/04/19 10:38:09;;;;;;;;;;;16.30;43.10;;;;;;5053715;28;19913;-88
2022/04/19 10:40:51;;;;;;;;;;;16.50;42.10;;;;;;5053514;28;19966;-88
2022/04/19 10:43:17;;;;;;;;;;;16.60;41.10;;;;;;5053806;28;19908;-88
2022/04/19 10:45:46;;;;;;;;;;;16.60;42.00;;;;;;5053604;28;19912;-88
2022/04/19 10:48:14;;;;;;;;;;;16.70;41.90;;;;;;5053499;28;19986;-89
2022/04/19 10:50:40;;;;;;;;;;;16.70;41.00;;;;;;5053375;28;20006;-88
2022/04/19 10:53:06;;;;;;;;;;;16.70;42.30;;;;;;5053585;28;19956;-88
2022/04/19 10:55:38;;;;;;;;;;;16.60;43.50;;;;;;5053585;28;19956;-88
2022/04/19 10:58:06;;;;;;;;;;;16.90;42.80;;;;;;5053561;28;19909;-88
2022/04/19 11:00:35;;;;;;;;;;;17.00;45.70;;;;;;5053300;28;20282;-88
2022/04/19 11:03:01;;;;;;;;;;;17.30;43.40;;;;;;5053484;28;19909;-88
2022/04/19 11:05:45;;;;;;;;;;;17.50;43.20;;;;;;5053264;28;19913;-88
2022/04/19 11:08:20;;;;;;;;;;;17.40;41.20;;;;;;5053134;28;20282;-88
2022/04/19 11:10:46;;;;;;;;;;;17.50;43.30;;;;;;5053032;28;20389;-88
2022/04/19 11:13:12;;;;;;;;;;;17.60;42.50;;;;;;5053182;28;19912;-88
2022/04/19 11:15:38;;;;;;;;;;;17.70;42.00;;;;;;5053276;28;20264;-88
2022/04/19 11:18:22;;;;;;;;;;;17.80;44.00;;;;;;5053504;28;19908;-88
2022/04/19 11:20:49;;;;;;;;;;;17.80;42.90;;;;;;5052428;28;19920;-88
2022/04/19 11:23:19;;;;;;;;;;;17.90;42.60;;;;;;5052774;28;19919;-88
2022/04/19 11:25:46;;;;;;;;;;;17.70;42.60;;;;;;5052996;28;19916;-88
2022/04/19 11:28:11;;;;;;;;;;;17.80;42.80;;;;;;5053025;28;19952;-88
2022/04/19 11:30:42;;;;;;;;;;;17.80;43.50;;;;;;5052155;28;20354;-89
2022/04/19 11:33:08;;;;;;;;;;;17.80;42.00;;;;;;5052946;28;19909;-89
2022/04/19 11:35:34;;;;;;;;;;;18.30;44.60;;;;;;5052903;28;19912;-88
2022/04/19 11:38:10;;;;;;;;;;;18.80;41.40;;;;;;5052778;28;19913;-89
2022/04/19 11:49:01;;;;;;;;;;;19.30;40.30;;;;;;5057182;28;20062;-88
2022/04/19 11:51:27;;;;;;;;;;;19.60;40.50;;;;;;5052829;28;20003;-88
2022/04/19 11:53:52;;;;;;;;;;;19.30;39.00;;;;;;5052728;28;20279;-89
2022/04/19 11:56:18;;;;;;;;;;;19.40;41.20;;;;;;5053553;28;19913;-89
2022/04/19 11:58:50;;;;;;;;;;;19.80;40.00;;;;;;5052355;28;19912;-89
2022/04/19 12:01:16;;;;;;;;;;;20.20;37.20;;;;;;5052042;28;19952;-89
2022/04/19 12:03:42;;;;;;;;;;;20.10;37.40;;;;;;5052815;28;20003;-89
2022/04/19 12:06:08;;;;;;;;;;;20.00;38.40;;;;;;5066154;28;20289;-88
2022/04/19 12:08:50;;;;;;;;;;;19.70;39.20;;;;;;5068738;28;19925;-88
2022/04/19 12:11:26;;;;;;;;;;;19.20;41.30;;;;;;5055900;28;20130;-89
2022/04/19 12:13:52;;;;;;;;;;;19.30;40.70;;;;;;5053688;28;19920;-88
2022/04/19 12:16:29;;;;;;;;;;;18.90;40.20;;;;;;5052823;28;19909;-89
2022/04/19 12:18:56;;;;;;;;;;;18.80;43.30;;;;;;5053074;28;19982;-89
2022/04/19 12:21:40;;;;;;;;;;;18.90;41.70;;;;;;5052299;28;19909;-88
2022/04/19 12:24:09;;;;;;;;;;;18.90;42.00;;;;;;5057761;28;20279;-88
2022/04/19 12:26:35;;;;;;;;;;;18.90;40.60;;;;;;5053857;28;19923;-88
2022/04/19 12:29:09;;;;;;;;;;;18.90;40.50;;;;;;5052388;28;20393;-88
2022/04/19 12:31:39;;;;;;;;;;;18.80;41.70;;;;;;5052322;28;20162;-88
2022/04/19 12:34:05;;;;;;;;;;;18.40;43.60;;;;;;5061946;28;19917;-88
2022/04/19 12:36:49;;;;;;;;;;;17.90;43.90;;;;;;5059255;28;19913;-88
2022/04/19 12:39:16;;;;;;;;;;;17.90;44.10;;;;;;5051953;28;19921;-89
2022/04/19 12:41:45;;;;;;;;;;;18.00;44.90;;;;;;5059510;28;19917;-89
2022/04/19 12:44:15;;;;;;;;;;;18.00;43.50;;;;;;5056050;28;20385;-88
2022/04/19 12:46:41;;;;;;;;;;;18.10;42.80;;;;;;5055896;28;19912;-88
2022/04/19 12:49:07;;;;;;;;;;;18.20;43.60;;;;;;5056750;28;19971;-88
2022/04/19 12:51:36;;;;;;;;;;;18.30;44.00;;;;;;5055640;28;19952;-88
2022/04/19 12:54:03;;;;;;;;;;;18.20;43.00;;;;;;5053713;28;19975;-88
2022/04/19 12:56:29;;;;;;;;;;;18.00;43.60;;;;;;5069060;28;19913;-88
2022/04/19 12:58:54;;;;;;;;;;;18.10;43.20;;;;;;5064838;28;19923;-88
2022/04/19 13:01:20;;;;;;;;;;;18.50;42.50;;;;;;5055502;28;19913;-88
2022/04/19 13:03:46;;;;;;;;;;;18.70;43.80;;;;;;5055437;28;19919;-88
2022/04/19 13:14:24;;;;;;;;;;;18.60;47.10;;;;;;5047818;28;19966;-88
2022/04/19 13:16:49;;;;;;;;;;;18.50;45.10;;;;;;5068150;28;19916;-88
2022/04/19 13:19:15;;;;;;;;;;;18.10;47.50;;;;;;5069184;28;19963;-88
2022/04/19 13:21:40;;;;;;;;;;;17.60;48.80;;;;;;5055428;28;20033;-88
2022/04/19 13:24:06;;;;;;;;;;;17.30;47.80;;;;;;5065886;28;19975;-88
2022/04/19 13:26:32;;;;;;;;;;;17.10;47.20;;;;;;5075338;28;19915;-88
2022/04/19 13:28:58;;;;;;;;;;;17.10;48.30;;;;;;5071187;28;20007;-88
2022/04/19 13:31:23;;;;;;;;;;;17.30;50.10;;;;;;5067050;28;20432;-88
2022/04/19 13:33:50;;;;;;;;;;;17.20;50.60;;;;;;5054899;28;19913;-88
2022/04/19 13:36:16;;;;;;;;;;;17.10;52.00;;;;;;5059996;28;19920;-88
2022/04/19 13:38:41;;;;;;;;;;;17.00;50.60;;;;;;5066237;28;19912;-88
2022/04/19 13:41:07;;;;;;;;;;;17.20;50.80;;;;;;5049356;28;19927;-88
2022/04/19 13:43:33;;;;;;;;;;;17.40;49.60;;;;;;5060699;28;20291;-88
2022/04/19 13:45:58;;;;;;;;;;;17.60;49.50;;;;;;5055008;28;19948;-89
2022/04/19 13:48:24;;;;;;;;;;;17.80;47.40;;;;;;5066511;28;19974;-89
2022/04/19 13:50:51;;;;;;;;;;;18.10;48.40;;;;;;5056922;28;19970;-88
2022/04/19 13:53:16;;;;;;;;;;;18.30;47.30;;;;;;5062441;28;20007;-89
2022/04/19 13:55:42;;;;;;;;;;;18.60;45.90;;;;;;5058734;28;19951;-88
2022/04/19 13:58:10;;;;;;;;;;;18.60;45.70;;;;;;5055779;28;19912;-89
2022/04/19 14:00:35;;;;;;;;;;;18.40;47.00;;;;;;5054147;28;20386;-89
2022/04/19 14:03:01;;;;;;;;;;;18.60;47.90;;;;;;5066284;28;19938;-89
2022/04/19 14:05:28;;;;;;;;;;;18.40;48.80;;;;;;5070116;28;19915;-89
2022/04/19 14:07:53;;;;;;;;;;;18.30;49.50;;;;;;5074396;28;19920;-89
2022/04/19 14:10:19;;;;;;;;;;;18.40;47.60;;;;;;5061718;28;19913;-88
2022/04/19 14:12:44;;;;;;;;;;;18.30;48.70;;;;;;5066308;28;20275;-89
2022/04/19 14:15:10;;;;;;;;;;;18.20;49.10;;;;;;5060628;28;19913;-89
2022/04/19 14:17:36;;;;;;;;;;;18.20;49.10;;;;;;5054032;28;19986;-89
2022/04/19 14:20:03;;;;;;;;;;;18.20;49.50;;;;;;5054560;28;19913;-89
2022/04/19 14:22:28;;;;;;;;;;;18.30;49.90;;;;;;5057609;28;20362;-89
2022/04/19 14:24:55;;;;;;;;;;;18.50;49.10;;;;;;5055025;28;19924;-89
2022/04/19 14:27:21;;;;;;;;;;;18.60;48.70;;;;;;5053143;28;19919;-89
2022/04/19 14:35:15;;;;;;;;;;;18.60;48.60;;;;;;5062170;28;20023;-89
2022/04/19 14:37:40;;;;;;;;;;;18.70;48.30;;;;;;5059719;28;19999;-89
2022/04/19 14:40:06;;;;;;;;;;;18.60;48.80;;;;;;5053586;28;19912;-89
2022/04/19 14:42:32;;;;;;;;;;;18.60;47.70;;;;;;5065975;28;20358;-89
2022/04/19 14:44:57;;;;;;;;;;;18.60;47.70;;;;;;5064114;28;20050;-89
2022/04/19 14:47:23;;;;;;;;;;;18.70;48.00;;;;;;5054331;28;19936;-89
2022/04/19 14:49:48;;;;;;;;;;;18.70;48.10;;;;;;5053039;28;19909;-89
2022/04/19 14:52:14;;;;;;;;;;;18.60;48.20;;;;;;5066445;28;19939;-89
2022/04/19 14:54:51;;;;;;;;;;;18.50;48.40;;;;;;5065480;28;20050;-89
2022/04/19 14:57:17;;;;;;;;;;;18.50;48.70;;;;;;5064848;28;19920;-89
2022/04/19 14:59:43;;;;;;;;;;;18.60;49.20;;;;;;5053254;28;19913;-89
2022/04/19 15:02:09;;;;;;;;;;;18.60;49.10;;;;;;5053512;28;19913;-89
2022/04/19 15:04:34;;;;;;;;;;;18.50;48.80;;;;;;5059200;28;19912;-89
2022/04/19 15:07:00;;;;;;;;;;;18.60;48.90;;;;;;5066443;22;19913;-88
2022/04/19 15:09:26;;;;;;;;;;;18.60;48.60;;;;;;5058338;28;19916;-89
2022/04/19 15:11:54;;;;;;;;;;;18.60;48.50;;;;;;5053178;28;19913;-89